createdAt,value
2023-05-13T00:00:00.425Z,7.67
2023-05-13T00:02:27.809Z,11.17
2023-05-13T00:04:55.177Z,9.47
2023-05-13T00:07:22.499Z,9.13
2023-05-13T00:09:49.824Z,10.53
2023-05-13T00:12:17.036Z,9.10
2023-05-13T00:14:45.685Z,9.87
2023-05-13T00:17:13.042Z,9.33
2023-05-13T00:19:40.294Z,7.43
2023-05-13T00:22:07.766Z,8.10
2023-05-13T00:24:34.972Z,8.10
2023-05-13T00:27:02.229Z,8.73
2023-05-13T00:29:29.536Z,7.70
2023-05-13T00:31:58.216Z,7.33
2023-05-13T00:34:25.653Z,6.80
2023-05-13T00:36:52.889Z,9.20
2023-05-13T00:39:20.153Z,7.53
2023-05-13T00:41:47.525Z,8.43
2023-05-13T00:44:14.793Z,8.07
2023-05-13T00:46:42.959Z,7.67
2023-05-13T00:49:11.629Z,7.77
2023-05-13T00:51:39.398Z,7.53
2023-05-13T00:54:06.748Z,8.30
2023-05-13T00:56:34.555Z,7.90
2023-05-13T00:59:01.892Z,8.47
2023-05-13T01:01:33.444Z,7.90
2023-05-13T01:04:04.850Z,8.03
2023-05-13T01:06:37.318Z,8.40
2023-05-13T01:09:12.153Z,7.77
2023-05-13T01:11:40.979Z,8.10
2023-05-13T01:14:10.858Z,5.90
2023-05-13T01:16:40.864Z,6.90
2023-05-13T01:19:13.673Z,7.50
2023-05-13T01:21:42.344Z,6.97
2023-05-13T01:24:09.696Z,7.30
2023-05-13T01:26:36.970Z,6.60
2023-05-13T01:29:04.617Z,6.57
2023-05-13T01:31:32.046Z,6.87
2023-05-13T01:33:59.701Z,6.33
2023-05-13T01:36:29.336Z,6.60
2023-05-13T01:38:58.609Z,6.17
2023-05-13T01:41:28.067Z,5.90
2023-05-13T01:43:55.545Z,6.03
2023-05-13T01:46:23.149Z,5.30
2023-05-13T01:48:50.481Z,4.93
2023-05-13T01:51:18.102Z,4.83
2023-05-13T01:53:45.421Z,5.03
2023-05-13T01:56:14.170Z,5.00
2023-05-13T01:58:41.655Z,5.20
2023-05-13T02:01:08.936Z,5.23
2023-05-13T02:03:36.581Z,5.50
2023-05-13T02:06:04.264Z,5.33
2023-05-13T02:08:31.556Z,5.40
2023-05-13T02:10:59.414Z,6.70
2023-05-13T02:13:30.092Z,5.53
2023-05-13T02:15:57.382Z,5.40
2023-05-13T02:18:24.712Z,6.10
2023-05-13T02:20:52.037Z,4.77
2023-05-13T02:23:19.332Z,5.97
2023-05-13T02:25:46.662Z,6.57
2023-05-13T02:28:13.913Z,6.10
2023-05-13T02:30:43.516Z,6.13
2023-05-13T02:33:11.163Z,6.40
2023-05-13T02:35:38.469Z,6.20
2023-05-13T02:38:05.850Z,6.07
2023-05-13T02:40:34.749Z,6.60
2023-05-13T02:43:02.123Z,5.77
2023-05-13T02:45:43.648Z,5.57
2023-05-13T02:48:11.953Z,6.23
2023-05-13T02:50:39.252Z,6.23
2023-05-13T02:53:06.521Z,6.13
2023-05-13T02:55:35.927Z,6.93
2023-05-13T02:58:03.833Z,6.77
2023-05-13T03:00:31.505Z,7.93
2023-05-13T03:03:00.336Z,6.80
2023-05-13T03:05:29.732Z,6.80
2023-05-13T03:07:57.367Z,7.20
2023-05-13T03:10:24.689Z,6.77
2023-05-13T03:12:51.949Z,7.23
2023-05-13T03:15:19.667Z,7.83
2023-05-13T03:17:47.069Z,7.53
2023-05-13T03:20:15.948Z,8.07
2023-05-13T03:22:43.249Z,7.30
2023-05-13T03:25:11.632Z,8.63
2023-05-13T03:27:46.759Z,8.50
2023-05-13T03:30:15.066Z,8.20
2023-05-13T03:32:56.168Z,8.30
2023-05-13T03:35:24.825Z,10.10
2023-05-13T03:37:52.628Z,8.57
2023-05-13T03:40:20.278Z,10.40
2023-05-13T03:42:48.112Z,10.23
2023-05-13T03:45:15.452Z,9.53
2023-05-13T03:50:37.408Z,10.97
2023-05-13T03:53:04.969Z,10.87
2023-05-13T03:55:33.971Z,10.13
2023-05-13T04:01:37.070Z,11.67
2023-05-13T04:04:05.720Z,9.20
2023-05-13T04:06:34.313Z,10.60
2023-05-13T04:09:01.533Z,12.23
2023-05-13T04:11:28.826Z,11.00
2023-05-13T04:13:56.095Z,11.10
2023-05-13T04:16:23.522Z,12.23
2023-05-13T04:18:50.802Z,10.13
2023-05-13T04:21:18.064Z,9.30
2023-05-13T04:23:46.686Z,11.57
2023-05-13T04:26:15.350Z,11.50
2023-05-13T04:28:42.771Z,11.53
2023-05-13T04:31:17.053Z,11.07
2023-05-13T04:33:44.510Z,11.33
2023-05-13T04:36:13.656Z,11.30
2023-05-13T04:38:43.045Z,11.37
2023-05-13T04:41:11.716Z,12.40
2023-05-13T04:43:43.259Z,10.77
2023-05-13T04:46:11.358Z,11.43
2023-05-13T04:48:38.893Z,10.80
2023-05-13T04:51:06.609Z,10.43
2023-05-13T04:53:34.416Z,11.33
2023-05-13T04:56:05.314Z,9.93
2023-05-13T04:58:49.074Z,11.27
2023-05-13T05:01:19.640Z,9.97
2023-05-13T05:03:47.209Z,10.37
2023-05-13T05:06:14.626Z,8.37
2023-05-13T05:08:42.483Z,9.37
2023-05-13T05:11:10.195Z,11.87
2023-05-13T05:13:38.148Z,10.93
2023-05-13T05:16:07.251Z,10.70
2023-05-13T05:18:36.064Z,10.83
2023-05-13T05:21:05.156Z,11.53
2023-05-13T05:23:32.385Z,11.17
2023-05-13T05:26:10.561Z,9.60
2023-05-13T05:28:43.601Z,9.87
2023-05-13T05:31:12.654Z,11.20
2023-05-13T05:33:41.323Z,11.13
2023-05-13T05:36:09.121Z,10.50
2023-05-13T05:38:36.819Z,11.83
2023-05-13T05:41:04.458Z,9.90
2023-05-13T05:43:31.966Z,9.93
2023-05-13T05:46:00.719Z,10.57
2023-05-13T05:48:27.974Z,11.57
2023-05-13T05:50:56.659Z,9.27
2023-05-13T05:53:27.896Z,10.80
2023-05-13T05:55:58.647Z,9.40
2023-05-13T05:58:26.359Z,9.90
2023-05-13T06:00:54.896Z,7.43
2023-05-13T06:03:22.451Z,8.67
2023-05-13T06:05:49.952Z,9.53
2023-05-13T06:08:20.198Z,9.77
2023-05-13T06:10:47.476Z,9.67
2023-05-13T06:13:15.604Z,6.33
2023-05-13T06:15:43.395Z,8.60
2023-05-13T06:18:12.177Z,8.73
2023-05-13T06:20:39.454Z,8.67
2023-05-13T06:23:06.893Z,7.70
2023-05-13T06:25:35.640Z,7.57
2023-05-13T06:28:03.578Z,8.07
2023-05-13T06:30:33.650Z,8.70
2023-05-13T06:33:02.372Z,9.07
2023-05-13T06:35:30.886Z,8.03
2023-05-13T06:37:58.798Z,8.47
2023-05-13T06:40:26.256Z,7.83
2023-05-13T06:42:55.374Z,8.57
2023-05-13T06:45:29.346Z,10.77
2023-05-13T06:47:56.720Z,7.23
2023-05-13T06:50:24.188Z,9.30
2023-05-13T06:52:51.776Z,7.13
2023-05-13T06:55:19.082Z,8.70
2023-05-13T06:57:46.470Z,7.90
2023-05-13T07:00:15.472Z,8.40
2023-05-13T07:02:43.022Z,8.03
2023-05-13T07:05:12.740Z,9.23
2023-05-13T07:07:39.956Z,8.63
2023-05-13T07:10:07.381Z,7.10
2023-05-13T07:12:34.719Z,8.17
2023-05-13T07:15:02.134Z,8.63
2023-05-13T07:17:30.794Z,6.60
2023-05-13T07:19:58.160Z,7.70
2023-05-13T07:22:25.467Z,7.90
2023-05-13T07:24:52.738Z,9.37
2023-05-13T07:27:20.053Z,8.67
2023-05-13T07:29:47.408Z,8.87
2023-05-13T07:32:14.752Z,8.67
2023-05-13T07:34:43.503Z,8.90
2023-05-13T07:37:10.722Z,6.93
2023-05-13T07:39:37.989Z,7.67
2023-05-13T07:42:05.396Z,8.27
2023-05-13T07:44:32.595Z,8.27
2023-05-13T07:46:59.938Z,7.90
2023-05-13T07:49:27.329Z,9.57
2023-05-13T07:51:56.332Z,9.73
2023-05-13T07:54:23.614Z,8.53
2023-05-13T07:56:50.943Z,7.77
2023-05-13T07:59:18.800Z,8.20
2023-05-13T08:01:47.250Z,8.53
2023-05-13T08:04:16.002Z,7.63
2023-05-13T08:06:43.459Z,8.23
2023-05-13T08:09:12.154Z,8.50
2023-05-13T08:11:39.410Z,7.77
2023-05-13T08:14:06.880Z,7.87
2023-05-13T08:16:35.483Z,9.40
2023-05-13T08:19:02.768Z,7.90
2023-05-13T08:21:30.258Z,8.67
2023-05-13T08:23:57.480Z,8.03
2023-05-13T08:26:26.175Z,7.83
2023-05-13T08:28:54.672Z,9.53
2023-05-13T08:31:22.571Z,6.77
2023-05-13T08:33:49.860Z,9.77
2023-05-13T08:36:17.135Z,8.40
2023-05-13T08:38:44.372Z,8.03
2023-05-13T08:41:13.043Z,6.97
2023-05-13T08:43:50.601Z,7.93
2023-05-13T08:46:19.451Z,8.87
2023-05-13T08:48:47.665Z,7.23
2023-05-13T08:51:14.901Z,6.53
2023-05-13T08:53:43.434Z,6.90
2023-05-13T08:56:10.709Z,7.00
2023-05-13T08:58:37.992Z,8.20
2023-05-13T09:01:07.025Z,7.00
2023-05-13T09:06:16.466Z,8.47
2023-05-13T09:08:44.039Z,6.30
2023-05-13T09:11:11.629Z,6.73
2023-05-13T09:13:40.316Z,6.63
2023-05-13T09:16:14.460Z,7.27
2023-05-13T09:18:42.782Z,6.77
2023-05-13T09:21:22.556Z,7.40
2023-05-13T09:23:49.866Z,7.77
2023-05-13T09:26:27.056Z,7.03
2023-05-13T09:29:14.570Z,6.20
2023-05-13T09:31:43.403Z,6.10
2023-05-13T09:34:10.741Z,6.37
2023-05-13T09:36:38.296Z,6.30
2023-05-13T09:39:06.643Z,8.30
2023-05-13T09:41:34.671Z,6.47
2023-05-13T09:44:05.217Z,6.67
2023-05-13T09:46:34.205Z,6.60
2023-05-13T09:49:10.323Z,6.53
2023-05-13T09:51:37.630Z,6.27
2023-05-13T09:54:05.712Z,5.40
2023-05-13T09:56:33.624Z,5.73
2023-05-13T09:59:01.050Z,7.50
2023-05-13T10:01:28.910Z,6.43
2023-05-13T10:03:56.523Z,6.53
2023-05-13T10:06:26.392Z,6.10
2023-05-13T10:08:54.483Z,6.27
2023-05-13T10:11:24.143Z,7.20
2023-05-13T10:14:07.256Z,5.83
2023-05-13T10:16:34.545Z,5.93
2023-05-13T10:19:02.133Z,7.23
2023-05-13T10:21:31.380Z,7.23
2023-05-13T10:23:59.135Z,6.20
2023-05-13T10:26:26.871Z,6.27
2023-05-13T10:28:55.541Z,8.40
2023-05-13T10:31:22.802Z,7.03
2023-05-13T10:33:51.575Z,6.73
2023-05-13T10:36:32.653Z,7.47
2023-05-13T10:39:09.505Z,6.63
2023-05-13T10:41:51.426Z,18.07
2023-05-13T10:44:18.840Z,9.03
2023-05-13T10:46:48.105Z,8.90
2023-05-13T10:49:16.075Z,8.20
2023-05-13T10:51:45.753Z,7.97
2023-05-13T10:54:20.145Z,8.13
2023-05-13T10:56:56.458Z,6.90
2023-05-13T10:59:23.820Z,7.67
2023-05-13T11:01:51.163Z,8.47
2023-05-13T11:04:20.294Z,6.90
2023-05-13T11:06:48.400Z,7.80
2023-05-13T11:09:16.198Z,5.70
2023-05-13T11:11:47.704Z,7.50
2023-05-13T11:14:15.604Z,6.13
2023-05-13T11:16:46.567Z,7.03
2023-05-13T11:19:19.652Z,7.67
2023-05-13T11:21:48.788Z,7.40
2023-05-13T11:24:18.313Z,7.17
2023-05-13T11:26:48.829Z,7.07
2023-05-13T11:29:27.390Z,6.43
2023-05-13T11:31:54.668Z,8.17
2023-05-13T11:34:21.882Z,7.50
2023-05-13T11:36:49.915Z,7.77
2023-05-13T11:39:18.045Z,7.03
2023-05-13T11:41:46.463Z,6.57
2023-05-13T11:44:16.103Z,5.67
2023-05-13T11:46:56.470Z,6.73
2023-05-13T11:49:33.371Z,6.40
2023-05-13T11:52:00.884Z,7.77
2023-05-13T11:54:28.164Z,7.33
2023-05-13T11:56:55.393Z,7.70
2023-05-13T11:59:24.111Z,7.33
2023-05-13T12:02:01.262Z,6.60
2023-05-13T12:04:29.442Z,7.00
2023-05-13T12:06:56.873Z,7.07
2023-05-13T12:09:24.265Z,7.07
2023-05-13T12:11:51.935Z,7.93
2023-05-13T12:14:19.903Z,7.43
2023-05-13T12:17:03.317Z,6.30
2023-05-13T12:19:31.992Z,5.83
2023-05-13T12:22:00.099Z,8.40
2023-05-13T12:24:27.398Z,7.77
2023-05-13T12:27:04.807Z,6.87
2023-05-13T12:29:39.757Z,6.97
2023-05-13T12:32:09.218Z,6.27
2023-05-13T12:34:38.050Z,6.83
2023-05-13T12:37:12.176Z,6.60
2023-05-13T12:39:39.699Z,6.03
2023-05-13T12:42:14.576Z,7.37
2023-05-13T12:44:47.563Z,6.57
2023-05-13T12:47:14.845Z,6.30
2023-05-13T12:49:57.275Z,6.33
2023-05-13T12:52:24.665Z,7.27
2023-05-13T12:54:51.869Z,5.80
2023-05-13T12:57:19.576Z,7.13
2023-05-13T12:59:46.826Z,6.97
2023-05-13T13:02:14.144Z,5.93
2023-05-13T13:04:41.478Z,7.00
2023-05-13T13:07:10.152Z,6.27
2023-05-13T13:09:37.451Z,5.83
2023-05-13T13:12:06.363Z,6.03
2023-05-13T13:17:19.033Z,5.70
2023-05-13T13:19:46.269Z,7.53
2023-05-13T13:22:14.856Z,6.93
2023-05-13T13:24:42.081Z,6.33
2023-05-13T13:27:10.884Z,6.30
2023-05-13T13:29:38.120Z,6.87
2023-05-13T13:32:05.723Z,6.43
2023-05-13T13:34:33.259Z,5.63
2023-05-13T13:37:00.557Z,7.00
2023-05-13T13:39:29.114Z,6.93
2023-05-13T13:42:02.278Z,6.87
2023-05-13T13:44:36.389Z,6.57
2023-05-13T13:47:09.975Z,6.57
2023-05-13T13:49:37.408Z,6.30
2023-05-13T13:52:22.872Z,6.97
2023-05-13T13:54:51.446Z,7.03
2023-05-13T13:57:24.185Z,6.40
2023-05-13T13:59:57.621Z,6.30
2023-05-13T14:02:25.111Z,7.30
2023-05-13T14:04:53.012Z,7.07
2023-05-13T14:07:20.375Z,6.23
2023-05-13T14:09:47.630Z,6.57
2023-05-13T14:12:25.835Z,6.40
2023-05-13T14:14:53.091Z,7.50
2023-05-13T14:17:20.779Z,6.67
2023-05-13T14:19:48.066Z,6.50
2023-05-13T14:22:15.571Z,6.53
2023-05-13T14:24:42.816Z,7.70
2023-05-13T14:27:10.087Z,6.23
2023-05-13T14:29:38.773Z,7.50
2023-05-13T14:32:11.248Z,6.80
2023-05-13T14:34:44.112Z,7.30
2023-05-13T14:37:12.661Z,7.00
2023-05-13T14:39:39.966Z,6.60
2023-05-13T14:42:07.613Z,7.10
2023-05-13T14:44:34.922Z,6.60
2023-05-13T14:47:03.592Z,6.83
2023-05-13T14:49:30.879Z,5.60
2023-05-13T14:51:58.362Z,6.30
2023-05-13T14:54:26.101Z,6.83
2023-05-13T14:56:53.389Z,7.20
2023-05-13T14:59:20.711Z,7.03
2023-05-13T15:01:48.023Z,7.10
2023-05-13T15:04:16.660Z,6.93
2023-05-13T15:06:45.402Z,7.93
2023-05-13T15:09:12.732Z,7.77
2023-05-13T15:11:42.025Z,7.33
2023-05-13T15:14:09.410Z,6.93
2023-05-13T15:16:36.720Z,7.57
2023-05-13T15:19:04.236Z,7.03
2023-05-13T15:21:52.564Z,7.10
2023-05-13T15:24:48.054Z,7.43
2023-05-13T15:27:22.798Z,6.77
2023-05-13T15:29:50.072Z,7.07
2023-05-13T15:32:17.279Z,7.40
2023-05-13T15:34:44.552Z,6.90
2023-05-13T15:37:12.108Z,7.63
2023-05-13T15:39:40.395Z,6.93
2023-05-13T15:42:07.888Z,8.13
2023-05-13T15:44:36.508Z,6.77
2023-05-13T15:47:04.225Z,7.37
2023-05-13T15:49:31.714Z,6.83
2023-05-13T15:52:02.974Z,7.67
2023-05-13T15:54:31.441Z,7.37
2023-05-13T15:56:59.032Z,7.07
2023-05-13T15:59:26.323Z,7.33
2023-05-13T16:01:55.009Z,7.93
2023-05-13T16:04:22.276Z,6.37
2023-05-13T16:06:49.598Z,7.70
2023-05-13T16:09:16.833Z,6.10
2023-05-13T16:11:44.027Z,7.63
2023-05-13T16:14:11.259Z,6.53
2023-05-13T16:16:38.591Z,6.50
2023-05-13T16:19:07.350Z,7.33
2023-05-13T16:21:34.635Z,6.90
2023-05-13T16:24:01.925Z,7.87
2023-05-13T16:26:34.522Z,7.63
2023-05-13T16:29:01.806Z,6.13
2023-05-13T16:31:29.113Z,7.57
2023-05-13T16:33:56.366Z,6.80
2023-05-13T16:36:33.588Z,8.30
2023-05-13T16:39:35.010Z,7.23
2023-05-13T16:42:12.887Z,6.60
2023-05-13T16:44:40.165Z,6.97
2023-05-13T16:47:08.077Z,7.57
2023-05-13T16:49:35.720Z,7.97
2023-05-13T16:52:18.204Z,6.77
2023-05-13T16:55:06.069Z,7.40
2023-05-13T16:57:34.797Z,7.73
2023-05-13T17:00:02.156Z,7.57
2023-05-13T17:02:29.699Z,6.63
2023-05-13T17:08:50.668Z,7.90
2023-05-13T17:11:18.225Z,7.43
2023-05-13T17:13:46.793Z,7.70
2023-05-13T17:16:14.141Z,6.83
2023-05-13T17:18:41.442Z,7.60
2023-05-13T17:21:09.066Z,7.20
2023-05-13T17:23:36.314Z,7.07
2023-05-13T17:26:04.930Z,7.70
2023-05-13T17:28:32.142Z,8.17
2023-05-13T17:31:01.104Z,7.20
2023-05-13T17:33:28.540Z,7.97
2023-05-13T17:36:01.068Z,7.63
2023-05-13T17:38:37.695Z,7.80
2023-05-13T17:41:05.420Z,8.47
2023-05-13T17:43:32.896Z,8.67
2023-05-13T17:46:01.517Z,8.30
2023-05-13T17:48:29.240Z,7.17
2023-05-13T17:50:56.735Z,7.57
2023-05-13T17:53:24.000Z,6.87
2023-05-13T17:55:51.245Z,8.33
2023-05-13T17:58:18.517Z,8.53
2023-05-13T18:00:45.745Z,7.50
2023-05-13T18:03:14.326Z,8.73
2023-05-13T18:05:41.598Z,8.33
2023-05-13T18:08:08.849Z,7.67
2023-05-13T18:10:36.149Z,8.90
2023-05-13T18:13:03.405Z,8.40
2023-05-13T18:15:30.717Z,8.23
2023-05-13T18:17:57.980Z,8.10
2023-05-13T18:20:26.862Z,7.37
2023-05-13T18:22:54.275Z,7.80
2023-05-13T18:25:21.560Z,8.30
2023-05-13T18:27:48.803Z,9.23
2023-05-13T18:30:16.335Z,8.20
2023-05-13T18:32:43.644Z,8.13
2023-05-13T18:35:10.940Z,8.17
2023-05-13T18:37:39.575Z,8.07
2023-05-13T18:40:12.167Z,8.73
2023-05-13T18:42:39.625Z,7.67
2023-05-13T18:45:07.586Z,7.80
2023-05-13T18:47:34.855Z,7.80
2023-05-13T18:50:03.067Z,6.70
2023-05-13T18:52:31.573Z,7.97
2023-05-13T18:55:06.564Z,9.83
2023-05-13T18:57:33.888Z,7.97
2023-05-13T19:00:01.160Z,7.33
2023-05-13T19:02:28.691Z,8.23
2023-05-13T19:04:56.289Z,8.00
2023-05-13T19:07:23.530Z,7.60
2023-05-13T19:09:50.768Z,8.07
2023-05-13T19:12:19.340Z,8.00
2023-05-13T19:14:46.685Z,7.87
2023-05-13T19:17:14.003Z,8.37
2023-05-13T19:19:41.301Z,7.20
2023-05-13T19:22:08.549Z,7.70
2023-05-13T19:24:35.887Z,8.13
2023-05-13T19:27:03.111Z,8.73
2023-05-13T19:29:31.659Z,8.47
2023-05-13T19:31:58.911Z,8.83
2023-05-13T19:34:26.178Z,7.33
2023-05-13T19:36:53.510Z,8.33
2023-05-13T19:39:20.726Z,8.47
2023-05-13T19:41:47.945Z,8.50
2023-05-13T19:44:15.190Z,8.20
2023-05-13T19:46:43.821Z,8.77
2023-05-13T19:49:11.053Z,8.53
2023-05-13T19:51:38.697Z,8.10
2023-05-13T19:54:07.580Z,8.70
2023-05-13T19:56:34.903Z,8.90
2023-05-13T19:59:02.113Z,7.87
2023-05-13T20:01:29.381Z,9.60
2023-05-13T20:04:05.867Z,8.80
2023-05-13T20:07:05.054Z,10.20
2023-05-13T20:10:02.034Z,8.60
2023-05-13T20:12:29.262Z,9.33
2023-05-13T20:14:56.520Z,9.50
2023-05-13T20:17:23.773Z,10.77
2023-05-13T20:19:52.910Z,10.00
2023-05-13T20:22:20.139Z,9.87
2023-05-13T20:24:48.483Z,10.27
2023-05-13T20:27:19.252Z,10.67
2023-05-13T20:29:47.283Z,10.10
2023-05-13T20:32:15.246Z,11.03
2023-05-13T20:34:42.465Z,9.87
2023-05-13T20:37:11.253Z,10.73
2023-05-13T20:39:38.708Z,10.70
2023-05-13T20:42:06.646Z,10.93
2023-05-13T20:44:33.929Z,10.63
2023-05-13T20:47:01.142Z,10.47
2023-05-13T20:49:28.492Z,10.27
2023-05-13T20:51:55.809Z,10.83
2023-05-13T20:54:24.458Z,10.57
2023-05-13T20:56:51.728Z,10.33
2023-05-13T20:59:18.989Z,10.30
2023-05-13T21:01:46.329Z,10.30
2023-05-13T21:04:14.167Z,11.50
2023-05-13T21:06:41.541Z,11.47
2023-05-13T21:09:08.866Z,9.97
2023-05-13T21:11:37.639Z,10.43
2023-05-13T21:14:04.901Z,11.70
2023-05-13T21:16:32.360Z,11.23
2023-05-13T21:18:59.979Z,10.47
2023-05-13T21:21:27.252Z,12.10
2023-05-13T21:24:16.590Z,11.77
2023-05-13T21:26:45.222Z,11.40
2023-05-13T21:29:12.439Z,10.93
2023-05-13T21:31:41.062Z,11.40
2023-05-13T21:38:08.732Z,11.50
2023-05-13T21:40:40.220Z,12.97
2023-05-13T21:43:08.889Z,11.17
2023-05-13T21:45:36.307Z,11.17
2023-05-13T21:48:03.812Z,11.67
2023-05-13T21:50:31.121Z,11.57
2023-05-13T21:52:58.470Z,12.03
2023-05-13T21:55:25.770Z,9.87
2023-05-13T21:57:53.259Z,11.53
2023-05-13T22:00:22.186Z,11.73
2023-05-13T22:02:50.941Z,10.33
2023-05-13T22:05:18.473Z,11.53
2023-05-13T22:08:08.191Z,11.13
2023-05-13T22:10:35.451Z,11.97
2023-05-13T22:13:03.105Z,10.50
2023-05-13T22:15:31.849Z,11.20
2023-05-13T22:25:09.706Z,13.30
2023-05-13T22:27:36.977Z,10.63
2023-05-13T22:30:04.776Z,12.00
2023-05-13T22:32:33.451Z,11.53
2023-05-13T22:35:00.790Z,11.47
2023-05-13T22:40:19.738Z,11.10
2023-05-13T22:42:47.038Z,12.37
2023-05-13T22:45:14.367Z,12.37
2023-05-13T22:47:43.016Z,11.67
2023-05-13T22:50:10.548Z,11.80
2023-05-13T22:53:00.818Z,11.47
2023-05-13T22:55:53.000Z,11.30
2023-05-13T22:58:26.231Z,11.87
2023-05-13T23:00:53.659Z,11.80
2023-05-13T23:03:22.223Z,11.03
2023-05-13T23:05:49.496Z,11.37
2023-05-13T23:08:16.720Z,11.73
2023-05-13T23:10:43.951Z,11.93
2023-05-13T23:13:11.564Z,11.73
2023-05-13T23:15:38.881Z,11.93
2023-05-13T23:18:06.218Z,10.73
2023-05-13T23:20:34.941Z,12.17
2023-05-13T23:23:02.181Z,13.07
2023-05-13T23:25:29.465Z,11.27
2023-05-13T23:28:08.728Z,12.23
2023-05-13T23:34:15.382Z,11.67
2023-05-13T23:36:43.980Z,11.23
2023-05-13T23:39:11.244Z,11.73
2023-05-13T23:41:38.517Z,12.63
2023-05-13T23:44:05.761Z,11.73
2023-05-13T23:49:08.962Z,12.63
2023-05-13T23:51:36.213Z,10.43
2023-05-13T23:54:04.817Z,10.93
2023-05-13T23:56:41.221Z,12.03
2023-05-13T23:59:30.266Z,11.87
